Time;durP1;ratioP1;P1;durP2;ratioP2;P2;SDS_P1;SDS_P2;PMS_P1;PMS_P2;Temp;Humidity;BMP_temperature;BMP_pressure;BME280_temperature;BME280_humidity;BME280_pressure;Samples;Min_cycle;Max_cycle;Signal;HPM_P1;HPM_P2
2021/06/13 00:00:44;;;;;;;9.38;7.07;;;17.90;86.40;;;;;;5071335;28;20165;-63
2021/06/13 00:03:11;;;;;;;9.57;6.20;;;17.90;86.30;;;;;;5072328;28;20029;-62
2021/06/13 00:05:37;;;;;;;8.70;6.38;;;17.90;86.20;;;;;;5072018;28;20033;-63
2021/06/13 00:08:03;;;;;;;8.40;6.22;;;17.80;86.50;;;;;;5068805;28;20077;-63
2021/06/13 00:10:29;;;;;;;9.75;6.65;;;17.80;86.70;;;;;;5067041;28;20104;-63
2021/06/13 00:12:55;;;;;;;10.90;6.53;;;17.80;86.80;;;;;;5062835;28;20044;-62
2021/06/13 00:15:25;;;;;;;8.70;6.03;;;17.90;86.90;;;;;;5064816;28;20037;-63
2021/06/13 00:17:53;;;;;;;9.82;7.13;;;17.80;86.80;;;;;;5045076;28;20377;-62
2021/06/13 00:20:28;;;;;;;7.82;6.00;;;17.80;86.80;;;;;;5063344;28;20039;-62
2021/06/13 00:22:54;;;;;;;6.45;5.75;;;17.80;86.70;;;;;;5064569;28;20024;-63
2021/06/13 00:25:20;;;;;;;9.43;7.10;;;17.90;86.80;;;;;;5061456;28;20044;-63
2021/06/13 00:27:46;;;;;;;9.48;6.15;;;17.90;85.90;;;;;;5044862;28;20060;-62
2021/06/13 00:30:13;;;;;;;7.10;6.40;;;17.90;86.00;;;;;;5064028;28;20532;-63
2021/06/13 00:32:39;;;;;;;8.82;6.82;;;17.90;85.90;;;;;;5062815;28;20047;-62
2021/06/13 00:35:06;;;;;;;9.52;6.88;;;18.00;85.30;;;;;;5062466;28;20021;-63
2021/06/13 00:37:33;;;;;;;13.57;7.05;;;18.00;85.20;;;;;;5064324;28;20416;-62
2021/06/13 00:39:58;;;;;;;7.82;5.88;;;18.00;84.70;;;;;;5065702;28;20024;-63
2021/06/13 00:42:24;;;;;;;10.45;6.53;;;18.00;84.40;;;;;;5062027;28;20566;-64
2021/06/13 00:44:50;;;;;;;7.05;5.63;;;18.00;84.40;;;;;;5064107;28;20035;-63
2021/06/13 00:47:15;;;;;;;7.53;5.80;;;18.00;84.50;;;;;;5064318;28;20031;-63
2021/06/13 00:49:41;;;;;;;8.23;5.88;;;18.00;83.40;;;;;;5064420;28;20458;-63
2021/06/13 00:52:07;;;;;;;7.63;5.40;;;18.00;83.20;;;;;;5065636;28;20025;-63
2021/06/13 00:54:33;;;;;;;9.85;6.53;;;18.00;83.40;;;;;;5064866;28;20055;-63
2021/06/13 00:57:00;;;;;;;9.05;6.00;;;18.00;83.60;;;;;;5065277;28;20025;-63
2021/06/13 00:59:25;;;;;;;7.25;5.90;;;18.00;83.30;;;;;;5065533;28;20028;-63
2021/06/13 01:01:51;;;;;;;7.78;5.93;;;18.00;83.70;;;;;;5045950;28;20363;-63
2021/06/13 01:04:16;;;;;;;7.80;5.95;;;18.00;83.80;;;;;;5071902;28;20546;-63
2021/06/13 01:06:48;;;;;;;8.48;6.25;;;18.00;84.10;;;;;;5071721;28;20070;-62
2021/06/13 01:09:17;;;;;;;9.27;6.10;;;18.00;84.60;;;;;;5072406;28;20029;-62
2021/06/13 01:12:05;;;;;;;8.05;5.93;;;18.00;84.60;;;;;;5068123;28;20668;-63
2021/06/13 01:14:46;;;;;;;8.25;6.35;;;17.90;84.90;;;;;;5067282;28;20027;-62
2021/06/13 01:17:43;;;;;;;7.90;5.90;;;17.90;85.10;;;;;;5066123;28;20470;-63
2021/06/13 01:20:17;;;;;;;9.35;6.75;;;17.80;85.40;;;;;;5064889;28;20444;-62
2021/06/13 01:23:01;;;;;;;7.95;6.15;;;17.80;85.00;;;;;;5071973;28;20029;-62
2021/06/13 01:25:49;;;;;;;8.30;5.90;;;17.70;85.00;;;;;;5071042;28;20470;-62
2021/06/13 01:28:52;;;;;;;6.97;5.75;;;17.60;85.40;;;;;;5066368;28;20402;-62
2021/06/13 01:31:21;;;;;;;10.27;6.68;;;17.60;86.30;;;;;;5066843;28;20489;-62
2021/06/13 01:33:48;;;;;;;8.98;6.20;;;17.50;86.30;;;;;;5071241;28;20111;-63
2021/06/13 01:36:15;;;;;;;13.65;6.28;;;17.50;86.50;;;;;;5072895;28;20027;-63
2021/06/13 01:38:44;;;;;;;7.82;5.40;;;17.40;86.10;;;;;;5071257;28;20472;-62
2021/06/13 01:41:15;;;;;;;8.35;5.53;;;17.30;86.30;;;;;;5054166;28;20094;-62
2021/06/13 01:43:40;;;;;;;;;;;17.30;86.40;;;;;;5072012;28;20854;-62
2021/06/13 01:46:08;;;;;;;8.93;5.53;;;17.20;86.70;;;;;;5072044;28;19919;-62
2021/06/13 01:48:37;;;;;;;8.23;5.75;;;17.20;86.70;;;;;;5053447;28;20024;-62
2021/06/13 01:51:03;;;;;;;8.40;5.78;;;17.20;86.80;;;;;;5071922;28;20115;-64
2021/06/13 01:53:31;;;;;;;7.57;5.65;;;17.10;87.50;;;;;;5070728;28;20048;-62
2021/06/13 01:55:57;;;;;;;8.95;5.50;;;17.10;87.20;;;;;;5071786;28;20060;-62
2021/06/13 01:58:23;;;;;;;10.40;6.10;;;17.10;86.50;;;;;;5071613;28;20074;-62
2021/06/13 02:00:50;;;;;;;8.27;5.20;;;17.10;85.20;;;;;;5070541;28;20075;-62
2021/06/13 02:03:17;;;;;;;9.90;5.25;;;17.10;85.00;;;;;;5063385;28;20038;-63
2021/06/13 02:05:47;;;;;;;7.40;5.68;;;17.10;85.10;;;;;;5070539;28;20665;-63
2021/06/13 02:08:14;;;;;;;9.90;6.03;;;17.10;85.20;;;;;;5069138;28;20111;-63
2021/06/13 02:10:41;;;;;;;6.43;5.70;;;17.00;85.50;;;;;;5070660;28;20090;-63
2021/06/13 02:13:08;;;;;;;9.10;5.70;;;17.10;85.70;;;;;;5071755;28;20025;-63
2021/06/13 02:15:36;;;;;;;6.95;4.90;;;17.10;86.40;;;;;;5053031;28;20534;-63
2021/06/13 02:18:04;;;;;;;7.38;4.93;;;17.10;87.50;;;;;;5071422;28;20462;-63
2021/06/13 02:20:31;;;;;;;6.88;4.97;;;17.10;86.90;;;;;;5070600;28;20032;-63
2021/06/13 02:22:59;;;;;;;7.25;5.18;;;17.10;86.70;;;;;;5069996;28;20040;-63
2021/06/13 02:25:24;;;;;;;6.72;5.45;;;17.10;86.90;;;;;;5042145;28;20025;-64
2021/06/13 02:27:52;;;;;;;5.78;5.18;;;17.10;87.50;;;;;;5070515;28;20020;-63
2021/06/13 02:30:20;;;;;;;8.55;5.43;;;17.10;87.60;;;;;;5070980;28;20033;-64
2021/06/13 02:32:47;;;;;;;10.95;5.90;;;17.20;86.70;;;;;;5064340;28;20032;-63
2021/06/13 02:35:15;;;;;;;9.93;5.82;;;17.20;86.80;;;;;;5071469;28;20122;-63
2021/06/13 02:37:42;;;;;;;9.88;5.88;;;17.20;86.50;;;;;;5070704;28;20020;-63
2021/06/13 02:40:10;;;;;;;7.00;5.38;;;17.20;85.80;;;;;;5071204;28;20111;-63
2021/06/13 02:42:36;;;;;;;5.85;5.18;;;17.20;85.60;;;;;;5062278;28;20040;-63
2021/06/13 02:45:09;;;;;;;7.15;5.15;;;17.30;85.80;;;;;;5071412;28;20063;-63
2021/06/13 02:47:36;;;;;;;9.82;5.65;;;17.30;85.50;;;;;;5070523;28;20044;-63
2021/06/13 02:50:07;;;;;;;12.25;5.75;;;17.30;85.20;;;;;;5071299;28;20068;-63
2021/06/13 02:52:40;;;;;;;13.45;6.00;;;17.30;84.80;;;;;;5069775;28;20052;-63
2021/06/13 02:55:11;;;;;;;6.80;5.20;;;17.40;83.40;;;;;;5071253;28;20070;-63
2021/06/13 02:57:52;;;;;;;6.75;5.10;;;17.50;83.60;;;;;;5053000;28;20033;-63
2021/06/13 03:00:19;;;;;;;7.28;5.30;;;17.40;83.90;;;;;;5070849;28;20037;-63
2021/06/13 03:02:47;;;;;;;6.28;5.25;;;17.40;84.00;;;;;;5062508;28;20063;-63
2021/06/13 03:05:16;;;;;;;10.48;5.40;;;17.40;84.10;;;;;;5053263;28;20028;-63
2021/06/13 03:07:43;;;;;;;9.38;5.63;;;17.40;84.00;;;;;;5070281;28;20051;-63
2021/06/13 03:10:09;;;;;;;6.88;4.85;;;17.30;84.00;;;;;;5070592;28;20496;-63
2021/06/13 03:12:36;;;;;;;9.55;5.80;;;17.30;84.60;;;;;;5070412;28;20458;-63
2021/06/13 03:15:02;;;;;;;9.18;5.15;;;17.30;83.60;;;;;;5071867;28;20475;-63
2021/06/13 03:17:29;;;;;;;9.27;5.20;;;17.40;82.80;;;;;;5074144;28;20020;-64
2021/06/13 03:19:55;;;;;;;7.95;5.28;;;17.30;82.90;;;;;;5070657;28;20054;-63
2021/06/13 03:22:22;;;;;;;7.60;5.15;;;17.30;82.30;;;;;;5075033;28;20056;-63
2021/06/13 03:24:50;;;;;;;12.98;5.32;;;17.50;81.90;;;;;;5074192;28;20815;-62
2021/06/13 03:27:17;;;;;;;6.72;5.35;;;17.40;82.10;;;;;;5074346;28;20093;-63
2021/06/13 03:29:45;;;;;;;10.50;5.20;;;17.40;81.90;;;;;;5073833;28;20027;-63
2021/06/13 03:32:12;;;;;;;6.53;4.53;;;17.40;81.70;;;;;;5072747;28;20036;-63
2021/06/13 03:34:43;;;;;;;9.65;5.68;;;17.40;81.70;;;;;;5067855;28;20056;-63
2021/06/13 03:37:10;;;;;;;10.65;5.03;;;17.40;81.80;;;;;;5074590;28;20078;-63
2021/06/13 03:39:37;;;;;;;10.00;4.82;;;17.30;81.70;;;;;;5073542;28;20063;-63
2021/06/13 03:42:04;;;;;;;7.90;5.05;;;17.30;81.40;;;;;;5074160;28;20037;-63
2021/06/13 03:44:31;;;;;;;10.90;5.65;;;17.40;81.50;;;;;;5065804;28;20085;-64
2021/06/13 03:46:58;;;;;;;8.10;4.68;;;17.30;81.50;;;;;;5074405;28;20044;-63
2021/06/13 03:49:25;;;;;;;9.38;4.35;;;17.20;81.80;;;;;;5074560;28;20485;-63
2021/06/13 03:51:51;;;;;;;7.03;5.28;;;17.20;82.00;;;;;;5072979;28;20036;-63
2021/06/13 03:54:17;;;;;;;8.13;5.20;;;17.20;81.80;;;;;;5074026;28;20052;-63
2021/06/13 03:56:51;;;;;;;7.43;4.45;;;17.30;81.50;;;;;;5073626;28;20458;-63
2021/06/13 03:59:22;;;;;;;10.88;5.18;;;17.20;82.00;;;;;;5074238;28;20036;-63
2021/06/13 04:01:48;;;;;;;7.10;4.70;;;17.10;81.90;;;;;;5073149;28;20021;-63
2021/06/13 04:04:18;;;;;;;8.95;4.97;;;17.10;82.10;;;;;;5073588;28;20420;-63
2021/06/13 04:06:46;;;;;;;8.98;5.50;;;17.10;82.10;;;;;;5064666;28;20115;-63
2021/06/13 04:09:12;;;;;;;11.07;4.20;;;17.10;81.70;;;;;;5070690;28;20040;-63
2021/06/13 04:11:40;;;;;;;11.05;5.05;;;17.10;82.40;;;;;;5072987;28;20032;-63
2021/06/13 04:14:09;;;;;;;6.57;4.38;;;17.10;82.00;;;;;;5073844;28;20024;-63
2021/06/13 04:16:35;;;;;;;10.03;4.30;;;17.20;80.80;;;;;;5072208;28;20481;-64
2021/06/13 04:19:02;;;;;;;8.40;4.35;;;17.10;80.90;;;;;;5074122;28;20060;-63
2021/06/13 04:21:28;;;;;;;10.02;4.95;;;17.10;80.40;;;;;;5073134;28;20041;-64
2021/06/13 04:23:56;;;;;;;8.77;4.75;;;17.20;80.00;;;;;;5073382;28;20025;-63
2021/06/13 04:26:23;;;;;;;8.52;4.43;;;17.10;79.60;;;;;;5073307;28;20159;-63
2021/06/13 04:28:50;;;;;;;8.90;4.53;;;17.10;80.20;;;;;;5072449;28;20105;-63
2021/06/13 04:31:17;;;;;;;8.88;4.38;;;17.00;81.00;;;;;;5074015;28;20458;-63
2021/06/13 04:33:46;;;;;;;7.25;4.75;;;17.00;80.60;;;;;;5072603;28;20401;-63
2021/06/13 04:36:14;;;;;;;11.70;4.63;;;17.00;80.20;;;;;;5073512;28;20145;-63
2021/06/13 04:38:40;;;;;;;9.38;5.20;;;17.00;81.00;;;;;;5072480;28;20024;-63
2021/06/13 04:41:07;;;;;;;8.75;4.45;;;17.00;81.10;;;;;;5073173;28;20074;-63
2021/06/13 04:43:35;;;;;;;11.23;4.50;;;17.00;81.20;;;;;;5072229;28;20024;-63
2021/06/13 04:46:02;;;;;;;9.23;4.57;;;17.00;80.80;;;;;;5073717;28;20107;-63
2021/06/13 04:48:28;;;;;;;9.30;4.60;;;17.00;80.80;;;;;;5073164;28;20036;-64
2021/06/13 04:50:55;;;;;;;8.35;4.57;;;16.90;80.90;;;;;;5073021;28;20393;-62
2021/06/13 04:53:47;;;;;;;13.48;4.82;;;16.90;81.80;;;;;;5072794;28;20123;-63
2021/06/13 04:56:47;;;;;;;9.50;5.03;;;16.90;81.50;;;;;;5073175;28;20067;-63
2021/06/13 04:59:12;;;;;;;8.27;4.55;;;17.00;81.20;;;;;;5073120;28;20055;-63
2021/06/13 05:01:42;;;;;;;7.20;4.93;;;17.00;81.50;;;;;;5071271;28;20450;-63
2021/06/13 05:04:09;;;;;;;6.53;4.40;;;17.00;81.80;;;;;;5073029;28;20430;-63
2021/06/13 05:06:35;;;;;;;9.15;4.90;;;17.00;82.10;;;;;;5071714;28;20755;-63
2021/06/13 05:09:01;;;;;;;6.68;4.03;;;17.10;82.30;;;;;;5063720;28;20028;-63
2021/06/13 05:11:26;;;;;;;10.25;5.35;;;17.00;81.90;;;;;;5072744;28;20032;-63
2021/06/13 05:13:52;;;;;;;9.77;4.72;;;17.00;81.20;;;;;;5071494;28;20036;-63
2021/06/13 05:16:18;;;;;;;12.07;4.55;;;17.10;80.50;;;;;;5072438;28;20029;-63
2021/06/13 05:18:44;;;;;;;6.88;4.10;;;17.20;80.20;;;;;;5072040;28;20029;-62
2021/06/13 05:21:09;;;;;;;6.80;4.45;;;17.20;80.10;;;;;;5072426;28;20084;-64
2021/06/13 05:23:35;;;;;;;6.28;4.35;;;17.10;81.30;;;;;;5071627;28;20032;-63
2021/06/13 05:26:01;;;;;;;9.27;4.68;;;17.10;81.40;;;;;;5072613;28;20036;-63
2021/06/13 05:28:29;;;;;;;7.05;4.35;;;17.10;80.70;;;;;;5072273;28;20028;-64
2021/06/13 05:30:55;;;;;;;9.80;4.03;;;17.10;80.50;;;;;;5071785;28;20032;-64
2021/06/13 05:33:22;;;;;;;9.82;4.28;;;17.20;80.80;;;;;;5072213;28;20032;-63
2021/06/13 05:35:48;;;;;;;12.27;3.85;;;17.30;79.80;;;;;;5069011;28;20032;-64
2021/06/13 05:38:14;;;;;;;12.75;3.50;;;17.40;79.60;;;;;;5071082;28;20155;-63
2021/06/13 05:40:40;;;;;;;13.40;3.72;;;17.50;76.70;;;;;;5071439;28;20099;-64
2021/06/13 05:43:07;;;;;;;5.13;3.40;;;17.60;75.60;;;;;;5071804;28;20032;-63
2021/06/13 05:45:34;;;;;;;5.93;3.17;;;17.60;76.10;;;;;;5070643;28;20056;-63
2021/06/13 05:48:00;;;;;;;7.88;3.72;;;17.60;75.70;;;;;;5071794;28;20033;-62
2021/06/13 05:50:27;;;;;;;4.38;3.17;;;17.70;74.80;;;;;;5072087;28;20101;-62
2021/06/13 05:52:53;;;;;;;7.38;3.67;;;17.70;75.30;;;;;;5071000;28;20074;-62
2021/06/13 05:55:19;;;;;;;8.68;3.67;;;17.80;74.90;;;;;;5071774;28;20453;-62
2021/06/13 05:57:46;;;;;;;6.13;3.47;;;17.80;74.50;;;;;;5071224;28;20029;-62
2021/06/13 06:00:18;;;;;;;5.28;3.53;;;17.90;74.50;;;;;;5063293;28;20052;-62
2021/06/13 06:02:46;;;;;;;11.00;3.88;;;17.90;75.00;;;;;;5070961;28;20032;-64
2021/06/13 06:05:13;;;;;;;7.18;3.75;;;17.90;74.90;;;;;;5054070;28;20445;-64
2021/06/13 06:07:39;;;;;;;6.80;3.42;;;18.00;74.10;;;;;;5064030;28;20021;-64
2021/06/13 06:10:07;;;;;;;8.90;3.00;;;18.00;74.10;;;;;;5071787;28;20059;-63
2021/06/13 06:12:33;;;;;;;8.38;3.85;;;18.00;74.50;;;;;;5071071;28;20091;-65
2021/06/13 06:14:59;;;;;;;6.25;3.72;;;18.10;74.50;;;;;;5070693;28;20025;-63
2021/06/13 06:17:25;;;;;;;7.03;3.58;;;18.20;73.10;;;;;;5071974;28;20077;-63
2021/06/13 06:19:50;;;;;;;7.75;3.90;;;18.20;73.50;;;;;;5070477;28;20024;-64
2021/06/13 06:22:16;;;;;;;8.73;4.07;;;18.20;75.00;;;;;;5071733;28;20037;-63
2021/06/13 06:24:42;;;;;;;6.13;3.75;;;18.20;74.30;;;;;;5070220;28;20431;-64
2021/06/13 06:27:08;;;;;;;7.45;3.58;;;18.20;74.90;;;;;;5071566;28;20110;-64
2021/06/13 06:29:33;;;;;;;6.82;4.00;;;18.30;74.40;;;;;;5070780;28;20502;-65
2021/06/13 06:31:59;;;;;;;9.48;4.28;;;18.40;74.20;;;;;;5071351;28;20111;-64
2021/06/13 06:34:25;;;;;;;8.85;3.97;;;18.40;73.80;;;;;;5071336;28;20113;-64
2021/06/13 06:36:51;;;;;;;6.65;3.63;;;18.40;73.10;;;;;;5070701;28;20036;-62
2021/06/13 06:39:17;;;;;;;9.00;3.92;;;18.30;73.90;;;;;;5071072;28;20095;-62
2021/06/13 06:41:43;;;;;;;5.97;3.50;;;18.40;73.80;;;;;;5070102;28;20122;-62
2021/06/13 06:44:09;;;;;;;8.18;3.60;;;18.50;74.30;;;;;;5070957;28;20059;-62
2021/06/13 06:46:35;;;;;;;7.60;3.67;;;18.60;72.70;;;;;;5070468;28;20044;-63
2021/06/13 06:49:02;;;;;;;6.63;3.08;;;18.80;72.70;;;;;;5070870;28;20103;-62
2021/06/13 06:51:28;;;;;;;7.45;3.03;;;18.80;71.00;;;;;;5070750;28;20040;-74
2021/06/13 06:53:55;;;;;;;8.50;3.30;;;18.70;72.10;;;;;;5070294;28;20106;-74
2021/06/13 06:56:21;;;;;;;6.18;3.20;;;18.80;70.20;;;;;;5071063;28;20024;-77
2021/06/13 06:58:47;;;;;;;8.57;3.75;;;18.80;70.80;;;;;;5068150;28;20078;-73
2021/06/13 07:01:12;;;;;;;9.75;3.45;;;18.80;70.60;;;;;;5069443;28;20032;-73
2021/06/13 07:03:38;;;;;;;7.55;3.10;;;18.80;71.30;;;;;;5070275;28;20028;-75
2021/06/13 07:06:04;;;;;;;10.88;3.38;;;18.80;71.10;;;;;;5071066;28;20029;-74
2021/06/13 07:08:29;;;;;;;6.95;3.70;;;18.80;70.20;;;;;;5068152;28;20130;-74
2021/06/13 07:10:55;;;;;;;6.57;3.92;;;18.90;70.70;;;;;;5070343;28;20867;-75
2021/06/13 07:13:22;;;;;;;8.00;3.47;;;18.80;71.00;;;;;;5070853;28;20028;-74
2021/06/13 07:15:47;;;;;;;8.90;3.72;;;18.80;71.20;;;;;;5070320;28;20381;-74
2021/06/13 07:18:13;;;;;;;9.73;3.80;;;18.80;72.10;;;;;;5071133;28;20037;-74
2021/06/13 07:20:38;;;;;;;7.97;3.60;;;18.90;71.90;;;;;;5060107;28;20040;-72
2021/06/13 07:23:04;;;;;;;6.88;3.85;;;19.10;71.90;;;;;;5049178;28;20029;-72
2021/06/13 07:25:30;;;;;;;10.90;3.85;;;19.20;72.20;;;;;;5049490;28;20025;-74
2021/06/13 07:27:56;;;;;;;4.40;3.15;;;19.40;69.90;;;;;;5057731;28;20031;-73
2021/06/13 07:30:22;;;;;;;8.38;4.28;;;19.50;69.90;;;;;;5043197;28;20028;-74
2021/06/13 07:32:49;;;;;;;8.63;3.42;;;19.60;70.00;;;;;;5061706;28;20171;-74
2021/06/13 07:35:16;;;;;;;11.20;3.53;;;19.70;69.80;;;;;;5062525;28;20025;-74
2021/06/13 07:37:42;;;;;;;7.95;3.20;;;19.70;68.70;;;;;;5061368;28;20483;-74
2021/06/13 07:40:12;;;;;;;7.65;3.70;;;19.70;69.20;;;;;;5042617;28;20031;-76
2021/06/13 07:42:38;;;;;;;4.95;3.13;;;19.60;68.90;;;;;;5059825;28;20124;-72
2021/06/13 07:45:06;;;;;;;8.73;3.80;;;19.60;69.40;;;;;;5060808;28;20039;-74
2021/06/13 07:47:32;;;;;;;5.10;3.92;;;19.70;68.90;;;;;;5062154;28;20424;-74
2021/06/13 07:49:58;;;;;;;10.15;3.53;;;19.70;68.10;;;;;;5060334;28;20131;-80
2021/06/13 07:52:25;;;;;;;7.43;3.75;;;19.70;68.90;;;;;;5061458;28;20053;-74
2021/06/13 07:54:50;;;;;;;8.20;3.22;;;19.80;68.90;;;;;;5064471;28;20031;-75
2021/06/13 07:57:16;;;;;;;8.15;3.95;;;19.80;68.60;;;;;;5059801;28;20028;-73
2021/06/13 07:59:45;;;;;;;5.18;3.30;;;19.70;68.00;;;;;;5060472;28;20108;-74
2021/06/13 08:02:12;;;;;;;15.50;4.07;;;19.70;68.70;;;;;;5065932;28;20039;-74
2021/06/13 08:04:43;;;;;;;6.25;3.17;;;19.70;68.10;;;;;;5063428;28;20024;-72
2021/06/13 08:07:09;;;;;;;5.80;3.05;;;19.80;68.00;;;;;;5061511;28;20021;-74
2021/06/13 08:09:35;;;;;;;5.90;3.25;;;19.90;67.40;;;;;;5049300;28;20033;-72
2021/06/13 08:12:00;;;;;;;9.10;3.83;;;20.00;67.60;;;;;;5062191;28;20501;-74
2021/06/13 08:14:26;;;;;;;5.60;3.05;;;20.30;66.00;;;;;;5062654;28;20029;-75
2021/06/13 08:16:52;;;;;;;7.07;3.65;;;20.30;66.70;;;;;;5064579;28;20611;-76
2021/06/13 08:19:18;;;;;;;6.00;3.65;;;20.40;66.10;;;;;;5065847;28;20055;-74
2021/06/13 08:21:43;;;;;;;9.55;3.67;;;20.30;65.30;;;;;;5064456;28;20071;-74
2021/06/13 08:24:09;;;;;;;7.68;3.03;;;20.30;65.10;;;;;;5063295;28;20021;-75
2021/06/13 08:26:37;;;;;;;6.82;3.78;;;20.30;65.80;;;;;;5064137;28;20370;-74
2021/06/13 08:29:03;;;;;;;8.30;2.92;;;20.40;64.70;;;;;;5064917;28;20021;-76
2021/06/13 08:31:30;;;;;;;12.25;4.18;;;20.50;65.10;;;;;;5063812;28;20090;-78
2021/06/13 08:33:57;;;;;;;8.75;3.80;;;20.60;64.10;;;;;;5062225;28;20580;-77
2021/06/13 08:36:23;;;;;;;6.40;3.13;;;20.60;64.10;;;;;;5064211;28;20025;-72
2021/06/13 08:38:52;;;;;;;6.97;3.00;;;20.60;64.20;;;;;;5065827;28;20052;-74
2021/06/13 08:41:18;;;;;;;8.18;3.63;;;20.60;63.70;;;;;;5064331;28;20052;-74
2021/06/13 08:43:46;;;;;;;10.52;3.65;;;20.70;63.90;;;;;;5061959;28;20029;-73
2021/06/13 08:46:13;;;;;;;5.65;2.70;;;20.80;63.40;;;;;;5071653;28;20052;-74
2021/06/13 08:48:41;;;;;;;6.68;3.60;;;20.60;64.00;;;;;;5065371;28;20020;-72
2021/06/13 08:51:07;;;;;;;8.52;3.47;;;20.50;63.40;;;;;;5062674;28;20124;-74
2021/06/13 08:53:33;;;;;;;10.10;3.58;;;20.40;63.60;;;;;;5064319;28;20215;-74
2021/06/13 08:55:59;;;;;;;5.45;3.22;;;20.40;63.60;;;;;;5059012;28;20056;-74
2021/06/13 08:58:25;;;;;;;8.02;3.67;;;20.50;63.20;;;;;;5065339;28;20025;-72
2021/06/13 09:00:51;;;;;;;7.20;3.40;;;20.50;63.20;;;;;;5059745;28;20398;-72
2021/06/13 09:03:18;;;;;;;11.30;3.45;;;20.60;63.90;;;;;;5066389;28;20035;-71
2021/06/13 09:05:44;;;;;;;10.25;4.22;;;20.50;64.70;;;;;;5063387;28;20031;-72
2021/06/13 09:08:12;;;;;;;6.05;3.53;;;20.50;63.70;;;;;;5063626;28;20025;-75
2021/06/13 09:10:41;;;;;;;7.82;3.72;;;20.60;63.40;;;;;;5061697;28;20135;-70
2021/06/13 09:13:14;;;;;;;10.38;3.70;;;20.80;63.00;;;;;;5059938;28;20029;-71
2021/06/13 09:15:47;;;;;;;7.35;3.30;;;20.70;63.40;;;;;;5058942;28;20037;-70
2021/06/13 09:18:42;;;;;;;9.38;3.80;;;20.90;62.10;;;;;;5048228;28;20484;-71
2021/06/13 09:21:32;;;;;;;4.93;3.25;;;20.90;62.70;;;;;;5064383;28;20041;-73
2021/06/13 09:23:59;;;;;;;6.97;3.40;;;21.00;61.70;;;;;;5059318;28;20067;-74
2021/06/13 09:26:26;;;;;;;5.80;3.40;;;21.10;62.30;;;;;;5063663;28;20036;-73
2021/06/13 09:28:54;;;;;;;11.55;3.25;;;21.20;60.40;;;;;;5061725;28;20033;-75
2021/06/13 09:31:29;;;;;;;6.63;2.72;;;21.30;60.90;;;;;;5063697;28;20493;-74
2021/06/13 09:34:00;;;;;;;8.05;4.22;;;21.40;61.50;;;;;;5062021;28;20032;-74
2021/06/13 09:36:35;;;;;;;7.47;3.78;;;21.50;60.70;;;;;;5063945;28;20024;-72
2021/06/13 09:39:06;;;;;;;7.03;3.10;;;21.50;60.30;;;;;;5062977;28;20028;-75
2021/06/13 09:41:34;;;;;;;5.18;3.05;;;21.60;59.60;;;;;;5063428;28;20040;-76
2021/06/13 09:44:12;;;;;;;8.55;3.80;;;21.60;59.50;;;;;;5063502;28;20052;-72
2021/06/13 09:46:41;;;;;;;7.50;3.40;;;21.70;59.20;;;;;;5064514;28;20035;-72
2021/06/13 09:49:10;;;;;;;5.07;3.10;;;21.70;60.00;;;;;;5060802;28;20067;-72
2021/06/13 09:51:39;;;;;;;7.47;3.60;;;21.70;60.80;;;;;;5059798;28;20033;-72
2021/06/13 09:54:10;;;;;;;7.88;3.00;;;21.80;59.00;;;;;;5061055;28;20079;-73
2021/06/13 09:56:41;;;;;;;5.32;2.78;;;21.90;59.30;;;;;;5063673;28;20111;-71
2021/06/13 09:59:09;;;;;;;6.45;2.90;;;22.10;60.00;;;;;;5061510;28;20111;-72
2021/06/13 10:02:03;;;;;;;7.55;3.25;;;22.10;58.60;;;;;;5063523;28;21314;-71
2021/06/13 10:04:31;;;;;;;5.80;2.58;;;22.20;57.80;;;;;;5058153;28;20041;-74
2021/06/13 10:07:24;;;;;;;7.05;2.63;;;22.10;56.50;;;;;;5063983;28;20059;-74
2021/06/13 10:09:52;;;;;;;4.78;2.33;;;22.10;56.90;;;;;;5060172;28;20426;-71
2021/06/13 10:12:19;;;;;;;3.78;1.90;;;22.10;56.60;;;;;;5068510;28;20334;-74
2021/06/13 10:14:48;;;;;;;10.07;2.72;;;22.20;56.70;;;;;;5070985;28;20033;-78
2021/06/13 10:17:14;;;;;;;5.38;2.35;;;22.30;56.60;;;;;;5071465;28;20028;-79
2021/06/13 10:19:46;;;;;;;5.75;2.50;;;22.40;53.60;;;;;;5070301;28;20114;-79
2021/06/13 10:22:14;;;;;;;4.68;2.72;;;22.30;53.90;;;;;;5063868;28;20086;-81
2021/06/13 10:24:42;;;;;;;5.05;2.60;;;22.10;54.90;;;;;;5070715;28;20109;-78
2021/06/13 10:27:10;;;;;;;5.57;2.40;;;22.00;57.00;;;;;;5070956;28;20031;-82
2021/06/13 10:29:41;;;;;;;9.27;2.50;;;22.10;56.30;;;;;;5070637;28;20379;-75
2021/06/13 10:32:08;;;;;;;5.90;2.92;;;22.30;56.30;;;;;;5062629;28;20036;-78
2021/06/13 10:34:34;;;;;;;6.97;2.58;;;22.40;55.20;;;;;;5072049;28;20078;-75
2021/06/13 10:37:06;;;;;;;4.43;2.40;;;22.40;54.50;;;;;;5067400;28;20042;-76
2021/06/13 10:39:33;;;;;;;7.13;2.40;;;22.50;53.70;;;;;;5075571;28;20055;-78
2021/06/13 10:42:00;;;;;;;5.82;2.25;;;22.60;53.80;;;;;;5071472;28;20049;-78
2021/06/13 10:44:29;;;;;;;6.75;2.88;;;22.70;53.50;;;;;;5071580;28;20141;-78
2021/06/13 10:46:58;;;;;;;6.18;2.13;;;22.70;52.00;;;;;;5071650;28;20025;-76
2021/06/13 10:49:36;;;;;;;7.95;2.28;;;22.70;52.20;;;;;;5071169;28;20028;-65
2021/06/13 10:52:12;;;;;;;4.30;2.35;;;22.80;51.80;;;;;;5069357;28;20477;-66
2021/06/13 10:54:37;;;;;;;4.20;2.33;;;22.80;52.30;;;;;;5070946;28;20052;-66
2021/06/13 10:57:03;;;;;;;11.10;2.22;;;23.10;52.10;;;;;;5069895;28;20075;-65
2021/06/13 10:59:32;;;;;;;5.75;2.08;;;23.00;51.10;;;;;;5066160;28;20473;-65
2021/06/13 11:02:09;;;;;;;5.03;2.10;;;23.00;51.90;;;;;;5068261;28;20047;-65
2021/06/13 11:04:49;;;;;;;3.55;1.73;;;22.90;51.60;;;;;;5071818;28;20035;-65
2021/06/13 11:07:27;;;;;;;;;;;22.90;48.80;;;;;;5063907;28;20031;-65
2021/06/13 11:10:05;;;;;;;4.43;2.33;;;22.70;50.20;;;;;;5070393;28;19908;-65
2021/06/13 11:12:55;;;;;;;5.90;2.30;;;22.50;51.80;;;;;;5064487;28;20024;-65
2021/06/13 11:15:39;;;;;;;7.80;2.45;;;22.60;53.40;;;;;;5063667;28;20025;-65
2021/06/13 11:18:27;;;;;;;4.10;2.63;;;22.60;52.90;;;;;;5070139;28;20032;-65
2021/06/13 11:21:20;;;;;;;4.97;2.20;;;22.80;52.40;;;;;;5064524;28;20094;-63
2021/06/13 11:23:47;;;;;;;6.03;2.17;;;23.10;53.50;;;;;;5066780;28;20043;-63
2021/06/13 11:26:33;;;;;;;5.15;1.50;;;23.50;52.00;;;;;;5070558;28;20126;-63
2021/06/13 11:28:59;;;;;;;4.22;1.80;;;23.90;48.30;;;;;;5069726;28;20613;-63
2021/06/13 11:31:25;;;;;;;6.45;2.45;;;24.10;48.70;;;;;;5071313;28;20028;-63
2021/06/13 11:33:55;;;;;;;1.70;1.50;;;24.10;46.90;;;;;;5070596;28;20032;-63
2021/06/13 11:36:22;;;;;;;3.83;2.30;;;24.10;46.70;;;;;;5071470;28;20036;-64
2021/06/13 11:38:49;;;;;;;2.88;1.50;;;24.10;46.70;;;;;;5073202;28;20025;-65
2021/06/13 11:41:42;;;;;;;4.55;2.03;;;24.10;45.40;;;;;;5074510;28;20126;-63
2021/06/13 11:44:10;;;;;;;2.78;1.40;;;24.10;43.10;;;;;;5073622;28;20175;-66
2021/06/13 11:46:39;;;;;;;7.63;2.03;;;24.10;43.90;;;;;;5075208;28;20347;-64
2021/06/13 11:49:07;;;;;;;3.17;1.88;;;24.10;45.00;;;;;;5073104;28;20036;-65
2021/06/13 11:51:57;;;;;;;3.28;1.60;;;24.30;44.30;;;;;;5073877;28;20036;-65
2021/06/13 11:54:31;;;;;;;8.13;2.17;;;24.50;44.30;;;;;;5077371;28;20052;-65
2021/06/13 11:56:58;;;;;;;4.22;2.00;;;24.80;45.60;;;;;;5092486;28;20148;-64
2021/06/13 11:59:25;;;;;;;2.05;1.65;;;24.80;45.60;;;;;;5093958;28;20028;-64
2021/06/13 12:01:59;;;;;;;7.32;1.85;;;24.50;43.80;;;;;;5092371;28;20085;-64
2021/06/13 12:04:29;;;;;;;3.20;1.98;;;24.40;45.40;;;;;;5095113;28;20028;-64
2021/06/13 12:06:56;;;;;;;2.85;2.03;;;24.50;46.50;;;;;;5094456;28;20016;-65
2021/06/13 12:09:24;;;;;;;5.38;2.10;;;24.60;46.80;;;;;;5083258;28;20107;-65
2021/06/13 12:12:04;;;;;;;4.88;1.92;;;24.50;45.70;;;;;;5094552;28;20062;-64
2021/06/13 12:14:38;;;;;;;8.35;2.38;;;24.40;48.00;;;;;;5086705;28;20036;-65
2021/06/13 12:17:14;;;;;;;4.03;1.92;;;24.60;47.20;;;;;;5091587;28;20032;-65
2021/06/13 12:19:49;;;;;;;3.72;1.88;;;24.70;47.20;;;;;;5093631;28;20051;-66
2021/06/13 12:22:43;;;;;;;5.97;2.03;;;24.90;45.80;;;;;;5094531;28;20058;-65
2021/06/13 12:27:46;;;;;;;4.18;1.73;;;25.10;43.30;;;;;;5093304;28;20467;-66
2021/06/13 12:30:20;;;;;;;2.45;1.40;;;25.10;42.90;;;;;;5092355;28;20024;-64
2021/06/13 12:32:56;;;;;;;5.35;1.70;;;25.00;42.20;;;;;;5089343;28;20481;-65
2021/06/13 12:35:29;;;;;;;3.85;1.27;;;25.00;42.10;;;;;;5091343;28;20036;-64
2021/06/13 12:38:07;;;;;;;3.58;1.30;;;25.10;43.70;;;;;;5092934;28;20431;-65
2021/06/13 12:40:37;;;;;;;8.63;1.88;;;25.30;40.20;;;;;;5093115;28;20469;-64
2021/06/13 12:43:05;;;;;;;3.35;1.80;;;25.30;43.00;;;;;;5092681;28;20114;-64
2021/06/13 12:45:30;;;;;;;3.17;1.60;;;25.40;43.40;;;;;;5093366;28;20032;-65
2021/06/13 12:47:59;;;;;;;2.92;1.75;;;25.50;43.60;;;;;;5092403;28;20119;-65
2021/06/13 12:50:30;;;;;;;2.72;1.70;;;25.80;41.80;;;;;;5093065;28;20484;-70
2021/06/13 12:52:58;;;;;;;2.70;1.90;;;25.80;42.10;;;;;;5083863;28;20036;-69
2021/06/13 12:55:31;;;;;;;2.28;1.90;;;26.00;44.40;;;;;;5072689;28;20032;-70
2021/06/13 12:57:57;;;;;;;2.95;1.92;;;25.80;45.10;;;;;;5072273;28;20036;-70